TSC107 MMPR-CYUL
Flight info
| Callsign | TSC107 |
|---|---|
| Flight time | N/A |
| Altitude | 35000 |
| Route | XUDED1B XUDED UT148 OTEKA UT1 KATLA J29 SLW UJ40 NLD J22 LRD DCT TNV DCT LFK DCT SQS/N0453F370 DCT BNA DCT FLM DCT APE DCT BSV DCT ART IMPAC4 |
| Aircraft | B737/M-SDE2E3FGHIRWXY/LB1 |
Departure
| Time | 2026-04-26 17:49 |
|---|---|
| Airport | Puerto Vallarta International Airport (MMPR) |
Arrival
| Time | N/A |
|---|---|
| Airport | Montreal / Pierre Elliott Trudeau International Airport (CYUL) |
| Time | Latitude | Longitude | Altitude | Speed | Heading |
|---|---|---|---|---|---|
| 2026-04-26 17:36 | 20.67982 | -105.24725 | 28 ft | 0 kts | 47° |
| 2026-04-26 17:41 | 20.67973 | -105.24735 | 28 ft | 4 kts | 47° |
| 2026-04-26 17:41 | 20.67955 | -105.24755 | 28 ft | 4 kts | 39° |
| 2026-04-26 17:41 | 20.67933 | -105.24765 | 28 ft | 4 kts | 346° |
| 2026-04-26 17:42 | 20.67917 | -105.24756 | 28 ft | 1 kts | 317° |
| 2026-04-26 17:42 | 20.67914 | -105.24753 | 28 ft | 0 kts | 317° |
| 2026-04-26 17:44 | 20.67915 | -105.24754 | 28 ft | 1 kts | 317° |
| 2026-04-26 17:44 | 20.67927 | -105.24765 | 28 ft | 3 kts | 317° |
| 2026-04-26 17:44 | 20.67946 | -105.24784 | 28 ft | 4 kts | 317° |
| 2026-04-26 17:44 | 20.67966 | -105.24803 | 28 ft | 4 kts | 317° |
| 2026-04-26 17:45 | 20.67989 | -105.24824 | 28 ft | 5 kts | 324° |
| 2026-04-26 17:45 | 20.68025 | -105.24828 | 28 ft | 6 kts | 14° |
| 2026-04-26 17:45 | 20.68060 | -105.24801 | 28 ft | 7 kts | 44° |
| 2026-04-26 17:45 | 20.68094 | -105.24764 | 28 ft | 7 kts | 45° |
| 2026-04-26 17:46 | 20.68137 | -105.24727 | 28 ft | 8 kts | 34° |
| 2026-04-26 17:46 | 20.68194 | -105.24706 | 28 ft | 9 kts | 9° |
| 2026-04-26 17:46 | 20.68261 | -105.24690 | 28 ft | 10 kts | 15° |
| 2026-04-26 17:46 | 20.68336 | -105.24666 | 28 ft | 12 kts | 18° |
| 2026-04-26 17:47 | 20.68416 | -105.24630 | 28 ft | 13 kts | 23° |
| 2026-04-26 17:47 | 20.68443 | -105.24615 | 28 ft | 13 kts | 28° |
| 2026-04-26 17:47 | 20.68579 | -105.24512 | 28 ft | 16 kts | 46° |
| 2026-04-26 17:47 | 20.68664 | -105.24412 | 28 ft | 18 kts | 48° |
| 2026-04-26 17:48 | 20.68750 | -105.24313 | 28 ft | 18 kts | 47° |
| 2026-04-26 17:48 | 20.68849 | -105.24270 | 28 ft | 15 kts | 332° |
| 2026-04-26 17:48 | 20.68902 | -105.24316 | 27 ft | 14 kts | 317° |
| 2026-04-26 17:48 | 20.68915 | -105.24379 | 28 ft | 9 kts | 228° |
| 2026-04-26 17:49 | 20.68847 | -105.24459 | 29 ft | 38 kts | 227° |
| 2026-04-26 17:49 | 20.68292 | -105.25089 | 27 ft | 133 kts | 227° |
| 2026-04-26 17:49 | 20.67553 | -105.25930 | 317 ft | 163 kts | 227° |
| 2026-04-26 17:49 | 20.66756 | -105.26837 | 1029 ft | 177 kts | 226° |
| 2026-04-26 17:50 | 20.66198 | -105.27461 | 1749 ft | 165 kts | 227° |
| 2026-04-26 17:50 | 20.65421 | -105.28406 | 2330 ft | 184 kts | 244° |
| 2026-04-26 17:50 | 20.65339 | -105.29819 | 2664 ft | 204 kts | 294° |
| 2026-04-26 17:50 | 20.66306 | -105.30905 | 3266 ft | 209 kts | 336° |
| 2026-04-26 17:51 | 20.67684 | -105.31435 | 3902 ft | 212 kts | 342° |
| 2026-04-26 17:51 | 20.69082 | -105.31944 | 4607 ft | 214 kts | 342° |
| 2026-04-26 17:51 | 20.70497 | -105.32479 | 5300 ft | 215 kts | 342° |
| 2026-04-26 17:51 | 20.71992 | -105.32682 | 5721 ft | 229 kts | 10° |
| 2026-04-26 17:52 | 20.73614 | -105.32301 | 6076 ft | 245 kts | 14° |
| 2026-04-26 17:52 | 20.75330 | -105.31864 | 6469 ft | 266 kts | 14° |
| 2026-04-26 17:52 | 20.77171 | -105.31398 | 7077 ft | 276 kts | 13° |
| 2026-04-26 17:52 | 20.79057 | -105.30929 | 7824 ft | 281 kts | 13° |
| 2026-04-26 17:53 | 20.80991 | -105.30459 | 8533 ft | 288 kts | 13° |
| 2026-04-26 17:53 | 20.82965 | -105.29987 | 9230 ft | 295 kts | 13° |
| 2026-04-26 17:53 | 20.84987 | -105.29507 | 9924 ft | 301 kts | 12° |
| 2026-04-26 17:54 | 20.89279 | -105.28499 | 10608 ft | 338 kts | 12° |
| 2026-04-26 17:54 | 20.91633 | -105.27951 | 10745 ft | 361 kts | 12° |
| 2026-04-26 17:54 | 20.94152 | -105.27366 | 10976 ft | 378 kts | 12° |
| 2026-04-26 17:54 | 20.96758 | -105.26762 | 11471 ft | 386 kts | 12° |
| 2026-04-26 17:55 | 20.99399 | -105.26151 | 12053 ft | 391 kts | 12° |
| 2026-04-26 17:55 | 21.02070 | -105.25532 | 12678 ft | 395 kts | 12° |
| 2026-04-26 17:55 | 21.04767 | -105.24908 | 13301 ft | 398 kts | 12° |
| 2026-04-26 17:55 | 21.07493 | -105.24276 | 13874 ft | 402 kts | 12° |
| 2026-04-26 17:56 | 21.10248 | -105.23638 | 14404 ft | 406 kts | 12° |
| 2026-04-26 17:56 | 21.15807 | -105.22348 | 15497 ft | 411 kts | 12° |
| 2026-04-26 17:57 | 21.21414 | -105.21047 | 16538 ft | 418 kts | 12° |
| 2026-04-26 17:57 | 21.24269 | -105.20385 | 17037 ft | 421 kts | 12° |
| 2026-04-26 17:57 | 21.27143 | -105.19719 | 17539 ft | 424 kts | 12° |
| 2026-04-26 17:57 | 21.30041 | -105.19045 | 18034 ft | 427 kts | 11° |
| 2026-04-26 17:58 | 21.38798 | -105.17011 | 19381 ft | 433 kts | 11° |
| 2026-04-26 17:59 | 21.44720 | -105.15632 | 20260 ft | 437 kts | 11° |
| 2026-04-26 17:59 | 21.47698 | -105.14938 | 20655 ft | 440 kts | 11° |
| 2026-04-26 17:59 | 21.50694 | -105.14240 | 21069 ft | 442 kts | 11° |
| 2026-04-26 17:59 | 21.53706 | -105.13538 | 21481 ft | 444 kts | 10° |
| 2026-04-26 18:00 | 21.56734 | -105.12833 | 21850 ft | 446 kts | 10° |
| 2026-04-26 18:00 | 21.59774 | -105.12125 | 22199 ft | 449 kts | 10° |
| 2026-04-26 18:00 | 21.62835 | -105.11409 | 22571 ft | 450 kts | 10° |
| 2026-04-26 18:00 | 21.65907 | -105.10691 | 22930 ft | 452 kts | 10° |
| 2026-04-26 18:01 | 21.68989 | -105.09971 | 23293 ft | 454 kts | 10° |
| 2026-04-26 18:01 | 21.72096 | -105.09244 | 23609 ft | 457 kts | 9° |
| 2026-04-26 18:01 | 21.75174 | -105.08524 | 23872 ft | 459 kts | 9° |
| 2026-04-26 18:01 | 21.78338 | -105.07784 | 24165 ft | 460 kts | 9° |
| 2026-04-26 18:02 | 21.81439 | -105.07058 | 24427 ft | 462 kts | 9° |
| 2026-04-26 18:02 | 21.83564 | -105.06558 | 24604 ft | 464 kts | 10° |
| 2026-04-26 18:02 | 21.87652 | -105.05126 | 24932 ft | 470 kts | 21° |
| 2026-04-26 18:02 | 21.90657 | -105.03694 | 25204 ft | 472 kts | 22° |
| 2026-04-26 18:03 | 21.93653 | -105.02210 | 25462 ft | 474 kts | 22° |
| 2026-04-26 18:03 | 21.96656 | -105.00712 | 25703 ft | 476 kts | 22° |
| 2026-04-26 18:03 | 21.99681 | -104.99214 | 25924 ft | 479 kts | 22° |
| 2026-04-26 18:03 | 22.02725 | -104.97721 | 26151 ft | 481 kts | 21° |
| 2026-04-26 18:04 | 22.05782 | -104.96234 | 26406 ft | 482 kts | 21° |
| 2026-04-26 18:04 | 22.08808 | -104.94770 | 26643 ft | 484 kts | 21° |
| 2026-04-26 18:04 | 22.11895 | -104.93280 | 26872 ft | 486 kts | 21° |
| 2026-04-26 18:05 | 22.18092 | -104.90289 | 27340 ft | 489 kts | 21° |
| 2026-04-26 18:05 | 22.21202 | -104.88786 | 27566 ft | 491 kts | 21° |
| 2026-04-26 18:05 | 22.24323 | -104.87277 | 27746 ft | 493 kts | 21° |
| 2026-04-26 18:05 | 22.27460 | -104.85758 | 27950 ft | 495 kts | 21° |
| 2026-04-26 18:06 | 22.30603 | -104.84236 | 28079 ft | 497 kts | 21° |
| 2026-04-26 18:06 | 22.33770 | -104.82703 | 28222 ft | 499 kts | 21° |
| 2026-04-26 18:06 | 22.36947 | -104.81163 | 28445 ft | 500 kts | 21° |
| 2026-04-26 18:06 | 22.40120 | -104.79620 | 28764 ft | 498 kts | 20° |
| 2026-04-26 18:07 | 22.43273 | -104.78087 | 29122 ft | 496 kts | 20° |
| 2026-04-26 18:07 | 22.46428 | -104.76553 | 29424 ft | 496 kts | 20° |
| 2026-04-26 18:07 | 22.49579 | -104.75022 | 29702 ft | 496 kts | 20° |
| 2026-04-26 18:07 | 22.51668 | -104.74007 | 29900 ft | 496 kts | 20° |
| 2026-04-26 18:08 | 22.55845 | -104.71976 | 30260 ft | 496 kts | 20° |
| 2026-04-26 18:08 | 22.58953 | -104.70346 | 30550 ft | 498 kts | 25° |
| 2026-04-26 18:08 | 22.61864 | -104.68291 | 30850 ft | 502 kts | 35° |
| 2026-04-26 18:08 | 22.64529 | -104.65831 | 31146 ft | 503 kts | 38° |
| 2026-04-26 18:09 | 22.67136 | -104.63298 | 31397 ft | 504 kts | 38° |
| 2026-04-26 18:09 | 22.69723 | -104.60749 | 31686 ft | 503 kts | 38° |
| 2026-04-26 18:09 | 22.72319 | -104.58195 | 31960 ft | 504 kts | 38° |
| 2026-04-26 18:09 | 22.74926 | -104.55649 | 32247 ft | 504 kts | 38° |
| 2026-04-26 18:10 | 22.77539 | -104.53117 | 32538 ft | 504 kts | 37° |
| 2026-04-26 18:10 | 22.80156 | -104.50595 | 32863 ft | 503 kts | 37° |
| 2026-04-26 18:10 | 22.82778 | -104.48076 | 33205 ft | 502 kts | 37° |
| 2026-04-26 18:10 | 22.85364 | -104.45587 | 33469 ft | 502 kts | 37° |
| 2026-04-26 18:11 | 22.87985 | -104.43069 | 33716 ft | 503 kts | 37° |
| 2026-04-26 18:11 | 22.90609 | -104.40554 | 34033 ft | 501 kts | 37° |
| 2026-04-26 18:11 | 22.93217 | -104.38052 | 34298 ft | 501 kts | 37° |
| 2026-04-26 18:11 | 22.95836 | -104.35536 | 34483 ft | 502 kts | 37° |
| 2026-04-26 18:12 | 22.98453 | -104.33017 | 34683 ft | 502 kts | 36° |
| 2026-04-26 18:12 | 23.01062 | -104.30503 | 34915 ft | 502 kts | 36° |
| 2026-04-26 18:12 | 23.03682 | -104.27978 | 34923 ft | 504 kts | 36° |
| 2026-04-26 18:13 | 23.08879 | -104.22961 | 34936 ft | 502 kts | 36° |
| 2026-04-26 18:13 | 23.14087 | -104.17929 | 34945 ft | 500 kts | 36° |
| 2026-04-26 18:14 | 23.19285 | -104.12902 | 34930 ft | 499 kts | 36° |
| 2026-04-26 18:14 | 23.24466 | -104.07887 | 34941 ft | 498 kts | 36° |
| 2026-04-26 18:15 | 23.29645 | -104.02869 | 34931 ft | 499 kts | 36° |
| 2026-04-26 18:15 | 23.34727 | -103.97940 | 34938 ft | 500 kts | 36° |
| 2026-04-26 18:16 | 23.39716 | -103.93096 | 34931 ft | 500 kts | 36° |
| 2026-04-26 18:16 | 23.45704 | -103.87266 | 34942 ft | 490 kts | 36° |
| 2026-04-26 18:17 | 23.50843 | -103.82272 | 34945 ft | 499 kts | 36° |
| 2026-04-26 18:17 | 23.56032 | -103.77222 | 34949 ft | 506 kts | 36° |
| 2026-04-26 18:18 | 23.61280 | -103.72099 | 34939 ft | 507 kts | 36° |
| 2026-04-26 18:18 | 23.66530 | -103.66968 | 34933 ft | 507 kts | 36° |
| 2026-04-26 18:19 | 23.71782 | -103.61830 | 34943 ft | 507 kts | 36° |
| 2026-04-26 18:19 | 23.77034 | -103.56688 | 34931 ft | 506 kts | 36° |
| 2026-04-26 18:20 | 23.82265 | -103.51563 | 34934 ft | 505 kts | 36° |
| 2026-04-26 18:20 | 23.86604 | -103.47305 | 34924 ft | 504 kts | 36° |
| 2026-04-26 18:21 | 23.92655 | -103.41363 | 34923 ft | 502 kts | 36° |
| 2026-04-26 18:21 | 23.97838 | -103.36265 | 34919 ft | 501 kts | 36° |
| 2026-04-26 18:22 | 24.03025 | -103.31173 | 34925 ft | 499 kts | 34° |
| 2026-04-26 18:22 | 24.08736 | -103.27073 | 34936 ft | 486 kts | 21° |
| 2026-04-26 18:23 | 24.14731 | -103.23614 | 34926 ft | 488 kts | 21° |
| 2026-04-26 18:23 | 24.20705 | -103.20030 | 34915 ft | 490 kts | 22° |
| 2026-04-26 18:24 | 24.26694 | -103.16417 | 34921 ft | 491 kts | 22° |
| 2026-04-26 18:24 | 24.32688 | -103.12801 | 34919 ft | 493 kts | 22° |
| 2026-04-26 18:25 | 24.38707 | -103.09171 | 34909 ft | 494 kts | 22° |
| 2026-04-26 18:25 | 24.44734 | -103.05532 | 34912 ft | 494 kts | 22° |
| 2026-04-26 18:26 | 24.50763 | -103.01886 | 34898 ft | 495 kts | 22° |
| 2026-04-26 18:26 | 24.56762 | -102.98256 | 34887 ft | 495 kts | 22° |
| 2026-04-26 18:27 | 24.62790 | -102.94603 | 34890 ft | 494 kts | 22° |
| 2026-04-26 18:27 | 24.68815 | -102.90948 | 34880 ft | 494 kts | 22° |
| 2026-04-26 18:28 | 24.74829 | -102.87297 | 34877 ft | 493 kts | 22° |
| 2026-04-26 18:28 | 24.80437 | -102.82917 | 34882 ft | 509 kts | 41° |
| 2026-04-26 18:29 | 24.82675 | -102.79872 | 34873 ft | 517 kts | 53° |
| 2026-04-26 18:29 | 24.84360 | -102.76346 | 34887 ft | 522 kts | 63° |
| 2026-04-26 18:29 | 24.87108 | -102.68949 | 34884 ft | 523 kts | 65° |
| 2026-04-26 18:30 | 24.89884 | -102.61541 | 34884 ft | 522 kts | 63° |
| 2026-04-26 18:30 | 24.92747 | -102.54201 | 34882 ft | 521 kts | 63° |
| 2026-04-26 18:31 | 24.95621 | -102.46861 | 34889 ft | 521 kts | 63° |
| 2026-04-26 18:31 | 24.98494 | -102.39523 | 34883 ft | 521 kts | 63° |
| 2026-04-26 18:32 | 25.01362 | -102.32184 | 34886 ft | 521 kts | 63° |
| 2026-04-26 18:32 | 25.04224 | -102.24841 | 34885 ft | 521 kts | 63° |
| 2026-04-26 18:33 | 25.07085 | -102.17488 | 34891 ft | 521 kts | 63° |
| 2026-04-26 18:33 | 25.09939 | -102.10138 | 34888 ft | 521 kts | 63° |
| 2026-04-26 18:34 | 25.12792 | -102.02782 | 34887 ft | 521 kts | 63° |
| 2026-04-26 18:34 | 25.15619 | -101.95477 | 34892 ft | 521 kts | 63° |
| 2026-04-26 18:35 | 25.18465 | -101.88109 | 34889 ft | 521 kts | 63° |
| 2026-04-26 18:35 | 25.21308 | -101.80740 | 34898 ft | 521 kts | 63° |
| 2026-04-26 18:36 | 25.23669 | -101.74602 | 34884 ft | 522 kts | 63° |
| 2026-04-26 18:36 | 25.26494 | -101.67220 | 34893 ft | 522 kts | 63° |
| 2026-04-26 18:37 | 25.29319 | -101.59815 | 34884 ft | 523 kts | 64° |
| 2026-04-26 18:37 | 25.32139 | -101.52411 | 34888 ft | 522 kts | 64° |
| 2026-04-26 18:38 | 25.34950 | -101.45025 | 34884 ft | 521 kts | 64° |
| 2026-04-26 18:38 | 25.37759 | -101.37627 | 34882 ft | 521 kts | 64° |
| 2026-04-26 18:39 | 25.40558 | -101.30245 | 34885 ft | 520 kts | 63° |
| 2026-04-26 18:39 | 25.43352 | -101.22863 | 34927 ft | 520 kts | 64° |
| 2026-04-26 18:40 | 25.46127 | -101.15516 | 34981 ft | 520 kts | 64° |
| 2026-04-26 18:40 | 25.48912 | -101.08128 | 35031 ft | 520 kts | 64° |
| 2026-04-26 18:41 | 25.51694 | -101.00739 | 35093 ft | 519 kts | 63° |
| 2026-04-26 18:41 | 25.55218 | -100.93887 | 35094 ft | 506 kts | 44° |
| 2026-04-26 18:42 | 25.60317 | -100.88731 | 35084 ft | 489 kts | 25° |
| 2026-04-26 18:42 | 25.66080 | -100.84750 | 35057 ft | 488 kts | 24° |
| 2026-04-26 18:43 | 25.71863 | -100.80749 | 34993 ft | 491 kts | 25° |
| 2026-04-26 18:43 | 25.77637 | -100.76654 | 34924 ft | 494 kts | 25° |
| 2026-04-26 18:44 | 25.83433 | -100.72517 | 34848 ft | 495 kts | 25° |
| 2026-04-26 18:44 | 25.89213 | -100.68408 | 34791 ft | 497 kts | 25° |
| 2026-04-26 18:45 | 25.95048 | -100.64273 | 34798 ft | 496 kts | 25° |
| 2026-04-26 18:45 | 26.00864 | -100.60142 | 34814 ft | 496 kts | 25° |
| 2026-04-26 18:46 | 26.06668 | -100.56006 | 34800 ft | 495 kts | 25° |
| 2026-04-26 18:46 | 26.12422 | -100.51895 | 34780 ft | 493 kts | 25° |
| 2026-04-26 18:47 | 26.18182 | -100.47773 | 34801 ft | 491 kts | 25° |
| 2026-04-26 18:47 | 26.23944 | -100.43648 | 34797 ft | 491 kts | 25° |
| 2026-04-26 18:48 | 26.29671 | -100.39542 | 34799 ft | 489 kts | 25° |
| 2026-04-26 18:48 | 26.35397 | -100.35433 | 34813 ft | 491 kts | 25° |
| 2026-04-26 18:49 | 26.41115 | -100.31326 | 34808 ft | 492 kts | 25° |
| 2026-04-26 18:49 | 26.46883 | -100.27176 | 34811 ft | 494 kts | 25° |
| 2026-04-26 18:50 | 26.52673 | -100.23004 | 34797 ft | 495 kts | 25° |
| 2026-04-26 18:50 | 26.58461 | -100.18824 | 34800 ft | 495 kts | 25° |
| 2026-04-26 18:51 | 26.64253 | -100.14628 | 34798 ft | 495 kts | 25° |
| 2026-04-26 18:51 | 26.70033 | -100.10436 | 34805 ft | 495 kts | 25° |
| 2026-04-26 18:52 | 26.75808 | -100.06245 | 34799 ft | 494 kts | 25° |
| 2026-04-26 18:52 | 26.81578 | -100.02062 | 34799 ft | 493 kts | 25° |
| 2026-04-26 18:53 | 26.87330 | -99.97886 | 34799 ft | 492 kts | 25° |
| 2026-04-26 18:53 | 26.93071 | -99.93712 | 34796 ft | 491 kts | 25° |
| 2026-04-26 18:54 | 26.98771 | -99.89562 | 34800 ft | 491 kts | 25° |
| 2026-04-26 18:54 | 27.04498 | -99.85387 | 34796 ft | 491 kts | 25° |
| 2026-04-26 18:55 | 27.10227 | -99.81206 | 34802 ft | 490 kts | 25° |
| 2026-04-26 18:55 | 27.15950 | -99.77022 | 34807 ft | 490 kts | 25° |
| 2026-04-26 18:56 | 27.21663 | -99.72838 | 34821 ft | 490 kts | 25° |
| 2026-04-26 18:56 | 27.27382 | -99.68644 | 34834 ft | 490 kts | 25° |
| 2026-04-26 18:57 | 27.32138 | -99.65152 | 34842 ft | 491 kts | 25° |
| 2026-04-26 18:57 | 27.38796 | -99.60259 | 34844 ft | 491 kts | 25° |
| 2026-04-26 18:58 | 27.41513 | -99.57870 | 34824 ft | 504 kts | 38° |
| 2026-04-26 18:58 | 27.43794 | -99.54807 | 34860 ft | 515 kts | 50° |
| 2026-04-26 18:58 | 27.45512 | -99.51232 | 34834 ft | 526 kts | 65° |
| 2026-04-26 18:58 | 27.46678 | -99.47314 | 34871 ft | 527 kts | 66° |
| 2026-04-26 18:59 | 27.49835 | -99.39972 | 34842 ft | 515 kts | 50° |
| 2026-04-26 18:59 | 27.52007 | -99.36816 | 34833 ft | 505 kts | 39° |
| 2026-04-26 18:59 | 27.54447 | -99.33968 | 34853 ft | 503 kts | 38° |
| 2026-04-26 19:00 | 27.59379 | -99.28444 | 34835 ft | 503 kts | 37° |
| 2026-04-26 19:00 | 27.64340 | -99.22863 | 34832 ft | 504 kts | 38° |
| 2026-04-26 19:01 | 27.69263 | -99.17227 | 34839 ft | 505 kts | 38° |
| 2026-04-26 19:01 | 27.74176 | -99.11549 | 34826 ft | 505 kts | 38° |
| 2026-04-26 19:02 | 27.79080 | -99.05868 | 34826 ft | 505 kts | 38° |
| 2026-04-26 19:02 | 27.83156 | -99.01143 | 34830 ft | 505 kts | 38° |
| 2026-04-26 19:03 | 27.88897 | -98.94484 | 34832 ft | 506 kts | 38° |
| 2026-04-26 19:03 | 27.93806 | -98.88782 | 34835 ft | 505 kts | 38° |
| 2026-04-26 19:04 | 27.98705 | -98.83084 | 34838 ft | 505 kts | 38° |
| 2026-04-26 19:04 | 28.03594 | -98.77389 | 34833 ft | 505 kts | 38° |
| 2026-04-26 19:05 | 28.10928 | -98.68831 | 34837 ft | 504 kts | 38° |
| 2026-04-26 19:06 | 28.15805 | -98.63131 | 34838 ft | 503 kts | 38° |
| 2026-04-26 19:06 | 28.20674 | -98.57432 | 34835 ft | 503 kts | 38° |
| 2026-04-26 19:07 | 28.25511 | -98.51763 | 34837 ft | 503 kts | 38° |
| 2026-04-26 19:07 | 28.30371 | -98.46059 | 34834 ft | 502 kts | 38° |
| 2026-04-26 19:08 | 28.35224 | -98.40354 | 34825 ft | 502 kts | 38° |
| 2026-04-26 19:08 | 28.40079 | -98.34641 | 34832 ft | 502 kts | 38° |
| 2026-04-26 19:09 | 28.44930 | -98.28924 | 34824 ft | 503 kts | 38° |
| 2026-04-26 19:09 | 28.49783 | -98.23196 | 34818 ft | 503 kts | 38° |
| 2026-04-26 19:10 | 28.54646 | -98.17448 | 34812 ft | 504 kts | 38° |
| 2026-04-26 19:10 | 28.59508 | -98.11693 | 34812 ft | 504 kts | 38° |
| 2026-04-26 19:11 | 28.64345 | -98.05960 | 34810 ft | 505 kts | 38° |
| 2026-04-26 19:11 | 28.69219 | -98.00174 | 34810 ft | 506 kts | 38° |
| 2026-04-26 19:12 | 28.74091 | -97.94381 | 34819 ft | 506 kts | 38° |
| 2026-04-26 19:12 | 28.78965 | -97.88579 | 34819 ft | 507 kts | 38° |
| 2026-04-26 19:13 | 28.83836 | -97.82771 | 34817 ft | 507 kts | 38° |
| 2026-04-26 19:13 | 28.88709 | -97.76953 | 34816 ft | 507 kts | 38° |
| 2026-04-26 19:14 | 28.93582 | -97.71126 | 34823 ft | 507 kts | 38° |
| 2026-04-26 19:14 | 28.98446 | -97.65301 | 34821 ft | 506 kts | 38° |
| 2026-04-26 19:15 | 29.03273 | -97.59513 | 34821 ft | 506 kts | 38° |
| 2026-04-26 19:15 | 29.08130 | -97.53680 | 34825 ft | 506 kts | 38° |
| 2026-04-26 19:16 | 29.12980 | -97.47848 | 34830 ft | 505 kts | 38° |
| 2026-04-26 19:16 | 29.17823 | -97.42015 | 34830 ft | 505 kts | 38° |
| 2026-04-26 19:17 | 29.22655 | -97.36186 | 34828 ft | 505 kts | 38° |
| 2026-04-26 19:17 | 29.27486 | -97.30351 | 34838 ft | 504 kts | 38° |
| 2026-04-26 19:18 | 29.32309 | -97.24515 | 34836 ft | 504 kts | 38° |
| 2026-04-26 19:18 | 29.37130 | -97.18675 | 34839 ft | 504 kts | 38° |
| 2026-04-26 19:19 | 29.41945 | -97.12833 | 34842 ft | 504 kts | 38° |
| 2026-04-26 19:19 | 29.46753 | -97.06991 | 34839 ft | 503 kts | 38° |
| 2026-04-26 19:20 | 29.51559 | -97.01143 | 34836 ft | 503 kts | 38° |
| 2026-04-26 19:20 | 29.56360 | -96.95292 | 34831 ft | 503 kts | 38° |
| 2026-04-26 19:21 | 29.61130 | -96.89470 | 34820 ft | 503 kts | 38° |
| 2026-04-26 19:21 | 29.65932 | -96.83601 | 34812 ft | 503 kts | 38° |
| 2026-04-26 19:22 | 29.69925 | -96.78715 | 34791 ft | 504 kts | 38° |
| 2026-04-26 19:22 | 29.74720 | -96.72837 | 34790 ft | 504 kts | 38° |
| 2026-04-26 19:23 | 29.79526 | -96.66938 | 34785 ft | 504 kts | 38° |
| 2026-04-26 19:23 | 29.84318 | -96.61046 | 34765 ft | 504 kts | 38° |
| 2026-04-26 19:24 | 29.89119 | -96.55134 | 34755 ft | 504 kts | 38° |
| 2026-04-26 19:24 | 29.96305 | -96.46270 | 34740 ft | 504 kts | 38° |
| 2026-04-26 19:25 | 30.00276 | -96.41362 | 34730 ft | 504 kts | 38° |
| 2026-04-26 19:25 | 30.05826 | -96.34493 | 34711 ft | 503 kts | 38° |
| 2026-04-26 19:26 | 30.10626 | -96.28542 | 34704 ft | 502 kts | 39° |
| 2026-04-26 19:26 | 30.15358 | -96.22668 | 34695 ft | 502 kts | 39° |
| 2026-04-26 19:27 | 30.20108 | -96.16761 | 34687 ft | 502 kts | 39° |
| 2026-04-26 19:27 | 30.24859 | -96.10843 | 34692 ft | 501 kts | 39° |
| 2026-04-26 19:28 | 30.29572 | -96.04889 | 34694 ft | 504 kts | 42° |
| 2026-04-26 19:28 | 30.33928 | -95.98486 | 34709 ft | 508 kts | 45° |
| 2026-04-26 19:29 | 30.38152 | -95.91925 | 34733 ft | 508 kts | 46° |
| 2026-04-26 19:29 | 30.42397 | -95.85378 | 34760 ft | 507 kts | 45° |
| 2026-04-26 19:30 | 30.46664 | -95.78870 | 34791 ft | 507 kts | 45° |
| 2026-04-26 19:30 | 30.50220 | -95.73465 | 34830 ft | 507 kts | 45° |
| 2026-04-26 19:31 | 30.55214 | -95.65863 | 34861 ft | 507 kts | 45° |
| 2026-04-26 19:31 | 30.59475 | -95.59358 | 34882 ft | 506 kts | 45° |
| 2026-04-26 19:32 | 30.63735 | -95.52843 | 34885 ft | 506 kts | 45° |
| 2026-04-26 19:32 | 30.67964 | -95.46365 | 34888 ft | 506 kts | 45° |
| 2026-04-26 19:33 | 30.72222 | -95.39830 | 34890 ft | 506 kts | 45° |
| 2026-04-26 19:33 | 30.76476 | -95.33292 | 34895 ft | 506 kts | 45° |
| 2026-04-26 19:34 | 30.80715 | -95.26766 | 34897 ft | 505 kts | 45° |
| 2026-04-26 19:34 | 30.84954 | -95.20228 | 34898 ft | 505 kts | 45° |
| 2026-04-26 19:35 | 30.89146 | -95.13752 | 34905 ft | 504 kts | 46° |
| 2026-04-26 19:35 | 30.93364 | -95.07227 | 34905 ft | 503 kts | 46° |
| 2026-04-26 19:36 | 30.96851 | -95.01823 | 34906 ft | 502 kts | 46° |
| 2026-04-26 19:36 | 31.01750 | -94.94220 | 34908 ft | 502 kts | 46° |
| 2026-04-26 19:37 | 31.05942 | -94.87701 | 34907 ft | 502 kts | 46° |
| 2026-04-26 19:37 | 31.10133 | -94.81173 | 34913 ft | 502 kts | 46° |
| 2026-04-26 19:38 | 31.14320 | -94.74641 | 34898 ft | 503 kts | 46° |
| 2026-04-26 19:38 | 31.18362 | -94.68010 | 34896 ft | 507 kts | 50° |
| 2026-04-26 19:39 | 31.22164 | -94.61054 | 34905 ft | 509 kts | 51° |
| 2026-04-26 19:39 | 31.25923 | -94.54039 | 34906 ft | 509 kts | 51° |
| 2026-04-26 19:40 | 31.29704 | -94.47047 | 34904 ft | 509 kts | 51° |
| 2026-04-26 19:40 | 31.33508 | -94.40062 | 34908 ft | 509 kts | 51° |
| 2026-04-26 19:41 | 31.37313 | -94.33081 | 34905 ft | 509 kts | 51° |
| 2026-04-26 19:41 | 31.40477 | -94.27264 | 34909 ft | 509 kts | 51° |
| 2026-04-26 19:42 | 31.44916 | -94.19085 | 34910 ft | 509 kts | 51° |
| 2026-04-26 19:42 | 31.48708 | -94.12082 | 34913 ft | 509 kts | 51° |
| 2026-04-26 19:43 | 31.52499 | -94.05067 | 34909 ft | 508 kts | 51° |
| 2026-04-26 19:43 | 31.56250 | -93.98114 | 34909 ft | 508 kts | 51° |
| 2026-04-26 19:44 | 31.60041 | -93.91073 | 34905 ft | 507 kts | 51° |
| 2026-04-26 19:44 | 31.63770 | -93.84136 | 34906 ft | 506 kts | 51° |
| 2026-04-26 19:45 | 31.67515 | -93.77156 | 34905 ft | 504 kts | 51° |
| 2026-04-26 19:45 | 31.71246 | -93.70190 | 34900 ft | 503 kts | 51° |
| 2026-04-26 19:46 | 31.74966 | -93.63232 | 34905 ft | 502 kts | 51° |
| 2026-04-26 19:46 | 31.78678 | -93.56276 | 34902 ft | 501 kts | 52° |
| 2026-04-26 19:47 | 31.81751 | -93.50509 | 34904 ft | 500 kts | 52° |
| 2026-04-26 19:47 | 31.86057 | -93.42412 | 34902 ft | 499 kts | 52° |
| 2026-04-26 19:48 | 31.89734 | -93.35485 | 34907 ft | 498 kts | 52° |
| 2026-04-26 19:48 | 31.93373 | -93.28616 | 34901 ft | 497 kts | 52° |
| 2026-04-26 19:49 | 31.97033 | -93.21695 | 34904 ft | 496 kts | 52° |
| 2026-04-26 19:49 | 32.00680 | -93.14786 | 34903 ft | 496 kts | 52° |
| 2026-04-26 19:50 | 32.04320 | -93.07878 | 34903 ft | 496 kts | 53° |
| 2026-04-26 19:50 | 32.07954 | -93.00970 | 34906 ft | 496 kts | 53° |
| 2026-04-26 19:51 | 32.11582 | -92.94060 | 34898 ft | 495 kts | 53° |
| 2026-04-26 19:51 | 32.15185 | -92.87183 | 34905 ft | 495 kts | 53° |
| 2026-04-26 19:52 | 32.18805 | -92.80264 | 34902 ft | 495 kts | 53° |
| 2026-04-26 19:52 | 32.22426 | -92.73329 | 34904 ft | 496 kts | 53° |
| 2026-04-26 19:53 | 32.26044 | -92.66386 | 34912 ft | 497 kts | 53° |
| 2026-04-26 19:53 | 32.29665 | -92.59426 | 34906 ft | 497 kts | 53° |
| 2026-04-26 19:54 | 32.33288 | -92.52448 | 34906 ft | 498 kts | 53° |
| 2026-04-26 19:54 | 32.36907 | -92.45465 | 34909 ft | 498 kts | 53° |
| 2026-04-26 19:55 | 32.40530 | -92.38460 | 34907 ft | 499 kts | 53° |
| 2026-04-26 19:55 | 32.44126 | -92.31495 | 34908 ft | 499 kts | 53° |
| 2026-04-26 19:56 | 32.47747 | -92.24469 | 34927 ft | 498 kts | 53° |
| 2026-04-26 19:56 | 32.51356 | -92.17452 | 34935 ft | 498 kts | 53° |
| 2026-04-26 19:57 | 32.54958 | -92.10436 | 34936 ft | 498 kts | 53° |
| 2026-04-26 19:57 | 32.58549 | -92.03428 | 34938 ft | 497 kts | 53° |
| 2026-04-26 19:58 | 32.62146 | -91.96399 | 35001 ft | 500 kts | 53° |
| 2026-04-26 19:58 | 32.63950 | -91.92867 | 35247 ft | 499 kts | 53° |
| 2026-04-26 19:58 | 32.65744 | -91.89349 | 35575 ft | 497 kts | 53° |
| 2026-04-26 19:59 | 32.67503 | -91.85896 | 35834 ft | 496 kts | 53° |
| 2026-04-26 19:59 | 32.69290 | -91.82387 | 36026 ft | 497 kts | 53° |
| 2026-04-26 19:59 | 32.71084 | -91.78864 | 36193 ft | 498 kts | 53° |
| 2026-04-26 19:59 | 32.72875 | -91.75343 | 36368 ft | 499 kts | 53° |
| 2026-04-26 20:00 | 32.74669 | -91.71810 | 36569 ft | 498 kts | 54° |
| 2026-04-26 20:00 | 32.76451 | -91.68296 | 36919 ft | 495 kts | 54° |
| 2026-04-26 20:00 | 32.80019 | -91.61255 | 36939 ft | 497 kts | 53° |
| 2026-04-26 20:01 | 32.83590 | -91.54195 | 36940 ft | 500 kts | 54° |
| 2026-04-26 20:01 | 32.87178 | -91.47089 | 37008 ft | 502 kts | 54° |
| 2026-04-26 20:02 | 32.90777 | -91.39944 | 37023 ft | 504 kts | 54° |
| 2026-04-26 20:02 | 32.93162 | -91.35201 | 37022 ft | 504 kts | 54° |
| 2026-04-26 20:03 | 32.97950 | -91.25660 | 36998 ft | 504 kts | 54° |
| 2026-04-26 20:03 | 33.01532 | -91.18505 | 36967 ft | 502 kts | 54° |
| 2026-04-26 20:04 | 33.05109 | -91.11348 | 36942 ft | 501 kts | 54° |
| 2026-04-26 20:04 | 33.08664 | -91.04221 | 36942 ft | 500 kts | 54° |
| 2026-04-26 20:05 | 33.12214 | -90.97092 | 36945 ft | 498 kts | 54° |
| 2026-04-26 20:05 | 33.15749 | -90.89978 | 36942 ft | 498 kts | 54° |
| 2026-04-26 20:06 | 33.19276 | -90.82868 | 36935 ft | 498 kts | 54° |
| 2026-04-26 20:06 | 33.22201 | -90.76959 | 36939 ft | 498 kts | 54° |
| 2026-04-26 20:07 | 33.26294 | -90.68676 | 36938 ft | 498 kts | 54° |
| 2026-04-26 20:07 | 33.29820 | -90.61526 | 36939 ft | 499 kts | 54° |
| 2026-04-26 20:08 | 33.33336 | -90.54379 | 36938 ft | 499 kts | 54° |
| 2026-04-26 20:08 | 33.36283 | -90.48380 | 36937 ft | 500 kts | 54° |
| 2026-04-26 20:09 | 33.39784 | -90.41237 | 36931 ft | 500 kts | 54° |
| 2026-04-26 20:09 | 33.43298 | -90.34055 | 36935 ft | 500 kts | 54° |
| 2026-04-26 20:10 | 33.46943 | -90.26981 | 36914 ft | 495 kts | 47° |
| 2026-04-26 20:10 | 33.51501 | -90.20918 | 36929 ft | 489 kts | 40° |
| 2026-04-26 20:11 | 33.56211 | -90.15043 | 36926 ft | 489 kts | 40° |
| 2026-04-26 20:12 | 33.63241 | -90.06148 | 36926 ft | 490 kts | 41° |
| 2026-04-26 20:12 | 33.67897 | -90.00170 | 36932 ft | 491 kts | 41° |
| 2026-04-26 20:13 | 33.72551 | -89.94171 | 36941 ft | 491 kts | 41° |
| 2026-04-26 20:13 | 33.77206 | -89.88161 | 36942 ft | 492 kts | 41° |
| 2026-04-26 20:14 | 33.81868 | -89.82135 | 36946 ft | 492 kts | 41° |
| 2026-04-26 20:14 | 33.86531 | -89.76100 | 36943 ft | 492 kts | 41° |
| 2026-04-26 20:15 | 33.91184 | -89.70067 | 36942 ft | 492 kts | 41° |
| 2026-04-26 20:15 | 33.95832 | -89.64030 | 36946 ft | 491 kts | 41° |
| 2026-04-26 20:16 | 34.00478 | -89.57985 | 36952 ft | 491 kts | 41° |
| 2026-04-26 20:16 | 34.05089 | -89.51975 | 36954 ft | 490 kts | 41° |
| 2026-04-26 20:17 | 34.09710 | -89.45942 | 36956 ft | 490 kts | 41° |
| 2026-04-26 20:17 | 34.14333 | -89.39896 | 36963 ft | 489 kts | 41° |
| 2026-04-26 20:18 | 34.18942 | -89.33858 | 36971 ft | 488 kts | 41° |
| 2026-04-26 20:18 | 34.23547 | -89.27815 | 36961 ft | 488 kts | 41° |
| 2026-04-26 20:19 | 34.28143 | -89.21773 | 36953 ft | 487 kts | 41° |
| 2026-04-26 20:19 | 34.32726 | -89.15737 | 36946 ft | 487 kts | 41° |
| 2026-04-26 20:20 | 34.37309 | -89.09692 | 36965 ft | 487 kts | 41° |
| 2026-04-26 20:20 | 34.41863 | -89.03674 | 36957 ft | 488 kts | 41° |
| 2026-04-26 20:21 | 34.46449 | -88.97604 | 36955 ft | 488 kts | 41° |
| 2026-04-26 20:21 | 34.51034 | -88.91524 | 36958 ft | 489 kts | 41° |
| 2026-04-26 20:22 | 34.55620 | -88.85431 | 36951 ft | 489 kts | 41° |
| 2026-04-26 20:22 | 34.60212 | -88.79319 | 36961 ft | 490 kts | 41° |
| 2026-04-26 20:23 | 34.64802 | -88.73200 | 36958 ft | 490 kts | 41° |
| 2026-04-26 20:23 | 34.69396 | -88.67064 | 36957 ft | 490 kts | 41° |
| 2026-04-26 20:24 | 34.73980 | -88.60930 | 36949 ft | 490 kts | 41° |
| 2026-04-26 20:24 | 34.78559 | -88.54792 | 36946 ft | 489 kts | 41° |
| 2026-04-26 20:25 | 34.83130 | -88.48655 | 36948 ft | 489 kts | 41° |
| 2026-04-26 20:25 | 34.87691 | -88.42520 | 36948 ft | 488 kts | 41° |
| 2026-04-26 20:26 | 34.92244 | -88.36385 | 36949 ft | 487 kts | 41° |
| 2026-04-26 20:26 | 34.96757 | -88.30292 | 36946 ft | 487 kts | 41° |
| 2026-04-26 20:27 | 35.01294 | -88.24157 | 36941 ft | 486 kts | 41° |
| 2026-04-26 20:27 | 35.05823 | -88.18021 | 36934 ft | 486 kts | 41° |
| 2026-04-26 20:28 | 35.10343 | -88.11887 | 36942 ft | 486 kts | 41° |
| 2026-04-26 20:28 | 35.14855 | -88.05753 | 36945 ft | 485 kts | 41° |
| 2026-04-26 20:29 | 35.19367 | -87.99608 | 36946 ft | 485 kts | 41° |
| 2026-04-26 20:29 | 35.23874 | -87.93458 | 36950 ft | 485 kts | 41° |
| 2026-04-26 20:30 | 35.28368 | -87.87315 | 36960 ft | 485 kts | 41° |
| 2026-04-26 20:30 | 35.32871 | -87.81148 | 36961 ft | 484 kts | 41° |
| 2026-04-26 20:31 | 35.37324 | -87.75038 | 36972 ft | 484 kts | 41° |
| 2026-04-26 20:31 | 35.41812 | -87.68871 | 36972 ft | 484 kts | 41° |
| 2026-04-26 20:32 | 35.46285 | -87.62712 | 36967 ft | 484 kts | 41° |
| 2026-04-26 20:32 | 35.50758 | -87.56542 | 36983 ft | 483 kts | 41° |
| 2026-04-26 20:33 | 35.55224 | -87.50371 | 36969 ft | 483 kts | 41° |
| 2026-04-26 20:33 | 35.59682 | -87.44199 | 36973 ft | 482 kts | 41° |
| 2026-04-26 20:34 | 35.64131 | -87.38028 | 36975 ft | 482 kts | 41° |
| 2026-04-26 20:34 | 35.68567 | -87.31865 | 36969 ft | 481 kts | 41° |
| 2026-04-26 20:35 | 35.73004 | -87.25688 | 36970 ft | 480 kts | 41° |
| 2026-04-26 20:35 | 35.77393 | -87.19566 | 36971 ft | 480 kts | 41° |
| 2026-04-26 20:36 | 35.81805 | -87.13403 | 36981 ft | 479 kts | 40° |
| 2026-04-26 20:36 | 35.86212 | -87.07234 | 36982 ft | 479 kts | 40° |
| 2026-04-26 20:37 | 35.90617 | -87.01058 | 36982 ft | 479 kts | 40° |
| 2026-04-26 20:37 | 35.95010 | -86.94887 | 36983 ft | 478 kts | 40° |
| 2026-04-26 20:38 | 35.99394 | -86.88716 | 36983 ft | 477 kts | 40° |
| 2026-04-26 20:38 | 36.03767 | -86.82551 | 37002 ft | 477 kts | 40° |
| 2026-04-26 20:39 | 36.08107 | -86.76420 | 37003 ft | 476 kts | 40° |
| 2026-04-26 20:39 | 36.12464 | -86.70260 | 37008 ft | 475 kts | 40° |
| 2026-04-26 20:40 | 36.17336 | -86.64983 | 37008 ft | 459 kts | 27° |
| 2026-04-26 20:40 | 36.22511 | -86.60373 | 37006 ft | 458 kts | 27° |
| 2026-04-26 20:41 | 36.27692 | -86.55765 | 37014 ft | 459 kts | 27° |
| 2026-04-26 20:41 | 36.32864 | -86.51096 | 37018 ft | 459 kts | 27° |
| 2026-04-26 20:42 | 36.38003 | -86.46412 | 37020 ft | 459 kts | 28° |
| 2026-04-26 20:42 | 36.43151 | -86.41705 | 37021 ft | 459 kts | 28° |
| 2026-04-26 20:43 | 36.48263 | -86.37025 | 37023 ft | 459 kts | 28° |
| 2026-04-26 20:43 | 36.53401 | -86.32313 | 37022 ft | 459 kts | 28° |
| 2026-04-26 20:44 | 36.58546 | -86.27588 | 37011 ft | 459 kts | 28° |
| 2026-04-26 20:44 | 36.63687 | -86.22859 | 37007 ft | 460 kts | 28° |
| 2026-04-26 20:45 | 36.68826 | -86.18124 | 37010 ft | 459 kts | 28° |
| 2026-04-26 20:45 | 36.73966 | -86.13379 | 37014 ft | 459 kts | 28° |
| 2026-04-26 20:46 | 36.79095 | -86.08637 | 37019 ft | 459 kts | 28° |
| 2026-04-26 20:46 | 36.84216 | -86.03893 | 37021 ft | 458 kts | 28° |
| 2026-04-26 20:47 | 36.89331 | -85.99148 | 37020 ft | 458 kts | 28° |
| 2026-04-26 20:47 | 36.94444 | -85.94396 | 37009 ft | 457 kts | 28° |
| 2026-04-26 20:48 | 36.99545 | -85.89648 | 37030 ft | 457 kts | 28° |
| 2026-04-26 20:48 | 37.04645 | -85.84891 | 37019 ft | 457 kts | 28° |
| 2026-04-26 20:49 | 37.09703 | -85.80166 | 37020 ft | 456 kts | 28° |
| 2026-04-26 20:49 | 37.14791 | -85.75406 | 37023 ft | 456 kts | 28° |
| 2026-04-26 20:50 | 37.19874 | -85.70641 | 37028 ft | 456 kts | 28° |
| 2026-04-26 20:50 | 37.24953 | -85.65872 | 37047 ft | 456 kts | 28° |
| 2026-04-26 20:51 | 37.30029 | -85.61098 | 37052 ft | 456 kts | 28° |
| 2026-04-26 20:51 | 37.35105 | -85.56315 | 37068 ft | 455 kts | 28° |
| 2026-04-26 20:52 | 37.40171 | -85.51534 | 37075 ft | 455 kts | 28° |
| 2026-04-26 20:52 | 37.45244 | -85.46737 | 37072 ft | 455 kts | 28° |
| 2026-04-26 20:53 | 37.50277 | -85.41970 | 37072 ft | 455 kts | 28° |
| 2026-04-26 20:53 | 37.55333 | -85.37173 | 37069 ft | 455 kts | 29° |
| 2026-04-26 20:54 | 37.60386 | -85.32371 | 37067 ft | 455 kts | 29° |
| 2026-04-26 20:54 | 37.64588 | -85.28371 | 37053 ft | 455 kts | 29° |
| 2026-04-26 20:55 | 37.69645 | -85.23550 | 37050 ft | 454 kts | 29° |
| 2026-04-26 20:55 | 37.74683 | -85.18737 | 37053 ft | 454 kts | 29° |
| 2026-04-26 20:56 | 37.79721 | -85.13917 | 37059 ft | 454 kts | 29° |
| 2026-04-26 20:56 | 37.84747 | -85.09100 | 37062 ft | 453 kts | 29° |
| 2026-04-26 20:57 | 37.89773 | -85.04274 | 37070 ft | 453 kts | 29° |
| 2026-04-26 20:57 | 37.94791 | -84.99446 | 37069 ft | 452 kts | 29° |
| 2026-04-26 20:58 | 37.99780 | -84.94639 | 37075 ft | 452 kts | 29° |
| 2026-04-26 20:58 | 38.04783 | -84.89811 | 37076 ft | 452 kts | 30° |
| 2026-04-26 20:59 | 38.09781 | -84.84978 | 37057 ft | 451 kts | 30° |
| 2026-04-26 20:59 | 38.14777 | -84.80139 | 37057 ft | 451 kts | 30° |
| 2026-04-26 21:00 | 38.19764 | -84.75299 | 37053 ft | 451 kts | 30° |
| 2026-04-26 21:00 | 38.24750 | -84.70452 | 37063 ft | 450 kts | 30° |
| 2026-04-26 21:01 | 38.29727 | -84.65605 | 37080 ft | 450 kts | 30° |
| 2026-04-26 21:01 | 38.34670 | -84.60783 | 37076 ft | 450 kts | 30° |
| 2026-04-26 21:02 | 38.39646 | -84.55920 | 37080 ft | 450 kts | 30° |
| 2026-04-26 21:02 | 38.44614 | -84.51055 | 37081 ft | 450 kts | 30° |
| 2026-04-26 21:03 | 38.49583 | -84.46182 | 37093 ft | 450 kts | 30° |
| 2026-04-26 21:03 | 38.54552 | -84.41300 | 37099 ft | 450 kts | 30° |
| 2026-04-26 21:04 | 38.59520 | -84.36409 | 37095 ft | 450 kts | 31° |
| 2026-04-26 21:04 | 38.64470 | -84.31527 | 37094 ft | 450 kts | 31° |
| 2026-04-26 21:05 | 38.69297 | -84.26377 | 37094 ft | 453 kts | 34° |
| 2026-04-26 21:05 | 38.73992 | -84.21062 | 37093 ft | 453 kts | 35° |
| 2026-04-26 21:06 | 38.78717 | -84.15705 | 37104 ft | 453 kts | 34° |
| 2026-04-26 21:06 | 38.83451 | -84.10376 | 37111 ft | 452 kts | 34° |
| 2026-04-26 21:07 | 38.88181 | -84.05064 | 37116 ft | 452 kts | 34° |
| 2026-04-26 21:07 | 38.92913 | -83.99745 | 37101 ft | 451 kts | 34° |
| 2026-04-26 21:08 | 38.97604 | -83.94461 | 37120 ft | 451 kts | 35° |
| 2026-04-26 21:08 | 39.02318 | -83.89140 | 37130 ft | 450 kts | 35° |
| 2026-04-26 21:09 | 39.07024 | -83.83818 | 37132 ft | 450 kts | 35° |
| 2026-04-26 21:09 | 39.11731 | -83.78486 | 37128 ft | 450 kts | 35° |
| 2026-04-26 21:10 | 39.16422 | -83.73162 | 37117 ft | 449 kts | 35° |
| 2026-04-26 21:10 | 39.21107 | -83.67834 | 37120 ft | 449 kts | 35° |
| 2026-04-26 21:11 | 39.25789 | -83.62500 | 37124 ft | 448 kts | 35° |
| 2026-04-26 21:11 | 39.30434 | -83.57199 | 37124 ft | 448 kts | 35° |
| 2026-04-26 21:12 | 39.35102 | -83.51861 | 37125 ft | 448 kts | 35° |
| 2026-04-26 21:12 | 39.39762 | -83.46522 | 37128 ft | 447 kts | 36° |
| 2026-04-26 21:13 | 39.44418 | -83.41179 | 37134 ft | 447 kts | 36° |
| 2026-04-26 21:13 | 39.49071 | -83.35828 | 37133 ft | 447 kts | 36° |
| 2026-04-26 21:14 | 39.53717 | -83.30476 | 37138 ft | 446 kts | 36° |
| 2026-04-26 21:14 | 39.58359 | -83.25119 | 37136 ft | 447 kts | 36° |
| 2026-04-26 21:15 | 39.62967 | -83.19791 | 37133 ft | 447 kts | 36° |
| 2026-04-26 21:15 | 39.67609 | -83.14413 | 37134 ft | 446 kts | 36° |
| 2026-04-26 21:16 | 39.72242 | -83.09035 | 37133 ft | 446 kts | 36° |
| 2026-04-26 21:16 | 39.76872 | -83.03651 | 37132 ft | 446 kts | 36° |
| 2026-04-26 21:17 | 39.81504 | -82.98255 | 37132 ft | 446 kts | 36° |
| 2026-04-26 21:17 | 39.86127 | -82.92859 | 37132 ft | 446 kts | 36° |
| 2026-04-26 21:18 | 39.90727 | -82.87480 | 37130 ft | 447 kts | 36° |
| 2026-04-26 21:18 | 39.95346 | -82.82067 | 37133 ft | 447 kts | 36° |
| 2026-04-26 21:19 | 39.99968 | -82.76641 | 37134 ft | 447 kts | 37° |
| 2026-04-26 21:19 | 40.04586 | -82.71208 | 37130 ft | 447 kts | 37° |
| 2026-04-26 21:20 | 40.09171 | -82.65805 | 37143 ft | 447 kts | 37° |
| 2026-04-26 21:20 | 40.13787 | -82.60349 | 37144 ft | 447 kts | 38° |
| 2026-04-26 21:21 | 40.17766 | -82.53988 | 37161 ft | 456 kts | 50° |
| 2026-04-26 21:21 | 40.21293 | -82.47056 | 37153 ft | 457 kts | 51° |
| 2026-04-26 21:22 | 40.24791 | -82.40154 | 37146 ft | 457 kts | 51° |
| 2026-04-26 21:22 | 40.27969 | -82.33947 | 37143 ft | 452 kts | 51° |
| 2026-04-26 21:23 | 40.33294 | -82.23613 | 37166 ft | 459 kts | 51° |
| 2026-04-26 21:23 | 40.36867 | -82.16659 | 37161 ft | 460 kts | 51° |
| 2026-04-26 21:24 | 40.40439 | -82.09685 | 37161 ft | 460 kts | 51° |
| 2026-04-26 21:24 | 40.43982 | -82.02755 | 37165 ft | 460 kts | 51° |
| 2026-04-26 21:25 | 40.47541 | -81.95774 | 37163 ft | 459 kts | 51° |
| 2026-04-26 21:25 | 40.51092 | -81.88796 | 37169 ft | 458 kts | 51° |
| 2026-04-26 21:26 | 40.54630 | -81.81830 | 37159 ft | 458 kts | 51° |
| 2026-04-26 21:26 | 40.58160 | -81.74863 | 37162 ft | 457 kts | 51° |
| 2026-04-26 21:27 | 40.61691 | -81.67877 | 37160 ft | 457 kts | 51° |
| 2026-04-26 21:27 | 40.65180 | -81.60959 | 37162 ft | 456 kts | 51° |
| 2026-04-26 21:28 | 40.68683 | -81.53999 | 37167 ft | 456 kts | 51° |
| 2026-04-26 21:28 | 40.72180 | -81.47036 | 37162 ft | 456 kts | 51° |
| 2026-04-26 21:29 | 40.75879 | -81.40291 | 37167 ft | 450 kts | 45° |
| 2026-04-26 21:29 | 40.79968 | -81.34045 | 37163 ft | 450 kts | 44° |
| 2026-04-26 21:30 | 40.84098 | -81.27809 | 37159 ft | 451 kts | 44° |
| 2026-04-26 21:30 | 40.87512 | -81.22602 | 37165 ft | 451 kts | 44° |
| 2026-04-26 21:31 | 40.92271 | -81.15277 | 37170 ft | 452 kts | 44° |
| 2026-04-26 21:31 | 40.96358 | -81.08958 | 37172 ft | 452 kts | 44° |
| 2026-04-26 21:32 | 41.00448 | -81.02617 | 37177 ft | 453 kts | 44° |
| 2026-04-26 21:32 | 41.04536 | -80.96269 | 37182 ft | 453 kts | 45° |
| 2026-04-26 21:33 | 41.08625 | -80.89906 | 37173 ft | 453 kts | 45° |
| 2026-04-26 21:33 | 41.12712 | -80.83534 | 37178 ft | 453 kts | 45° |
| 2026-04-26 21:34 | 41.16796 | -80.77153 | 37170 ft | 453 kts | 45° |
| 2026-04-26 21:34 | 41.20852 | -80.70803 | 37171 ft | 453 kts | 45° |
| 2026-04-26 21:35 | 41.24928 | -80.64406 | 37167 ft | 453 kts | 45° |
| 2026-04-26 21:35 | 41.28996 | -80.58010 | 37168 ft | 453 kts | 45° |
| 2026-04-26 21:36 | 41.32371 | -80.52692 | 37166 ft | 453 kts | 45° |
| 2026-04-26 21:36 | 41.37116 | -80.45202 | 37172 ft | 453 kts | 45° |
| 2026-04-26 21:37 | 41.41172 | -80.38783 | 37167 ft | 453 kts | 45° |
| 2026-04-26 21:37 | 41.45221 | -80.32363 | 37164 ft | 453 kts | 45° |
| 2026-04-26 21:38 | 41.49267 | -80.25933 | 37160 ft | 453 kts | 45° |
| 2026-04-26 21:38 | 41.53291 | -80.19525 | 37163 ft | 452 kts | 45° |
| 2026-04-26 21:39 | 41.57334 | -80.13072 | 37156 ft | 453 kts | 45° |
| 2026-04-26 21:39 | 41.61371 | -80.06615 | 37159 ft | 453 kts | 45° |
| 2026-04-26 21:40 | 41.65404 | -80.00152 | 37168 ft | 453 kts | 45° |
| 2026-04-26 21:40 | 41.69435 | -79.93676 | 37167 ft | 453 kts | 45° |
| 2026-04-26 21:41 | 41.73466 | -79.87188 | 37166 ft | 453 kts | 45° |
| 2026-04-26 21:41 | 41.77478 | -79.80715 | 37173 ft | 453 kts | 45° |
| 2026-04-26 21:42 | 41.81497 | -79.74217 | 37173 ft | 453 kts | 45° |
| 2026-04-26 21:42 | 41.85526 | -79.67690 | 37189 ft | 453 kts | 45° |
| 2026-04-26 21:43 | 41.88869 | -79.62262 | 37184 ft | 453 kts | 45° |
| 2026-04-26 21:43 | 41.93547 | -79.54651 | 37185 ft | 454 kts | 45° |
| 2026-04-26 21:44 | 41.96915 | -79.49160 | 37184 ft | 454 kts | 45° |
| 2026-04-26 21:44 | 42.00927 | -79.42605 | 37186 ft | 454 kts | 45° |
| 2026-04-26 21:45 | 42.04909 | -79.36084 | 37184 ft | 454 kts | 46° |
| 2026-04-26 21:45 | 42.08920 | -79.29502 | 37177 ft | 454 kts | 46° |
| 2026-04-26 21:46 | 42.12927 | -79.22912 | 37174 ft | 455 kts | 46° |
| 2026-04-26 21:46 | 42.16934 | -79.16307 | 37176 ft | 455 kts | 46° |
| 2026-04-26 21:47 | 42.20939 | -79.09692 | 37182 ft | 455 kts | 46° |